sensor_id;sensor_type;location;lat;lon;timestamp;P1;durP1;ratioP1;P2;durP2;ratioP2
23712;SDS011;12035;49.978;8.298;2022-12-10T00:01:20;11.73;;;6.55;;
23712;SDS011;12035;49.978;8.298;2022-12-10T00:06:19;10.50;;;6.60;;
23712;SDS011;12035;49.978;8.298;2022-12-10T00:11:20;10.73;;;6.57;;
23712;SDS011;12035;49.978;8.298;2022-12-10T00:16:20;12.02;;;6.85;;
23712;SDS011;12035;49.978;8.298;2022-12-10T00:21:22;11.18;;;6.60;;
23712;SDS011;12035;49.978;8.298;2022-12-10T00:26:25;12.48;;;7.03;;
23712;SDS011;12035;49.978;8.298;2022-12-10T00:31:25;11.82;;;7.45;;
23712;SDS011;12035;49.978;8.298;2022-12-10T00:36:26;12.00;;;7.50;;
23712;SDS011;12035;49.978;8.298;2022-12-10T00:41:25;13.00;;;8.43;;
23712;SDS011;12035;49.978;8.298;2022-12-10T00:46:22;12.13;;;7.55;;
23712;SDS011;12035;49.978;8.298;2022-12-10T00:51:20;10.77;;;7.25;;
23712;SDS011;12035;49.978;8.298;2022-12-10T00:56:21;9.80;;;6.70;;
23712;SDS011;12035;49.978;8.298;2022-12-10T01:01:21;14.48;;;8.52;;
23712;SDS011;12035;49.978;8.298;2022-12-10T01:06:20;10.50;;;6.93;;
23712;SDS011;12035;49.978;8.298;2022-12-10T01:11:21;12.07;;;7.75;;
23712;SDS011;12035;49.978;8.298;2022-12-10T01:16:23;14.20;;;7.40;;
23712;SDS011;12035;49.978;8.298;2022-12-10T01:21:20;12.77;;;6.70;;
23712;SDS011;12035;49.978;8.298;2022-12-10T01:26:18;12.25;;;7.60;;
23712;SDS011;12035;49.978;8.298;2022-12-10T01:31:19;13.35;;;7.72;;
23712;SDS011;12035;49.978;8.298;2022-12-10T01:36:19;11.65;;;7.43;;
23712;SDS011;12035;49.978;8.298;2022-12-10T01:41:18;15.00;;;9.02;;
23712;SDS011;12035;49.978;8.298;2022-12-10T01:46:19;13.85;;;8.57;;
23712;SDS011;12035;49.978;8.298;2022-12-10T01:51:17;15.23;;;7.88;;
23712;SDS011;12035;49.978;8.298;2022-12-10T01:56:16;10.55;;;6.97;;
23712;SDS011;12035;49.978;8.298;2022-12-10T02:01:18;14.57;;;7.45;;
23712;SDS011;12035;49.978;8.298;2022-12-10T02:06:25;13.77;;;7.95;;
23712;SDS011;12035;49.978;8.298;2022-12-10T02:11:33;17.85;;;9.15;;
23712;SDS011;12035;49.978;8.298;2022-12-10T02:16:41;15.77;;;8.90;;
23712;SDS011;12035;49.978;8.298;2022-12-10T02:21:44;17.25;;;8.30;;
23712;SDS011;12035;49.978;8.298;2022-12-10T02:26:46;13.32;;;8.13;;
23712;SDS011;12035;49.978;8.298;2022-12-10T02:31:50;13.50;;;7.57;;
23712;SDS011;12035;49.978;8.298;2022-12-10T02:36:51;12.90;;;7.78;;
23712;SDS011;12035;49.978;8.298;2022-12-10T02:41:52;12.63;;;8.00;;
23712;SDS011;12035;49.978;8.298;2022-12-10T02:46:52;11.05;;;6.70;;
23712;SDS011;12035;49.978;8.298;2022-12-10T02:51:52;10.35;;;6.82;;
23712;SDS011;12035;49.978;8.298;2022-12-10T02:56:50;11.48;;;7.13;;
23712;SDS011;12035;49.978;8.298;2022-12-10T03:01:57;10.40;;;6.63;;
23712;SDS011;12035;49.978;8.298;2022-12-10T03:07:01;9.73;;;6.38;;
23712;SDS011;12035;49.978;8.298;2022-12-10T03:12:06;10.27;;;6.53;;
23712;SDS011;12035;49.978;8.298;2022-12-10T03:17:13;9.35;;;5.63;;
23712;SDS011;12035;49.978;8.298;2022-12-10T03:22:12;9.00;;;5.68;;
23712;SDS011;12035;49.978;8.298;2022-12-10T03:27:12;9.25;;;5.82;;
23712;SDS011;12035;49.978;8.298;2022-12-10T03:32:12;9.65;;;5.70;;
23712;SDS011;12035;49.978;8.298;2022-12-10T03:37:12;10.18;;;6.25;;
23712;SDS011;12035;49.978;8.298;2022-12-10T03:42:09;9.60;;;6.03;;
23712;SDS011;12035;49.978;8.298;2022-12-10T03:47:08;8.85;;;5.78;;
23712;SDS011;12035;49.978;8.298;2022-12-10T03:52:10;10.23;;;5.90;;
23712;SDS011;12035;49.978;8.298;2022-12-10T03:57:07;10.95;;;6.35;;
23712;SDS011;12035;49.978;8.298;2022-12-10T04:02:04;9.75;;;5.53;;
23712;SDS011;12035;49.978;8.298;2022-12-10T04:07:01;10.48;;;5.40;;
23712;SDS011;12035;49.978;8.298;2022-12-10T04:12:02;10.30;;;5.95;;
23712;SDS011;12035;49.978;8.298;2022-12-10T04:16:59;9.75;;;5.93;;
23712;SDS011;12035;49.978;8.298;2022-12-10T04:21:56;8.77;;;5.35;;
23712;SDS011;12035;49.978;8.298;2022-12-10T04:27:13;8.50;;;5.40;;
23712;SDS011;12035;49.978;8.298;2022-12-10T04:32:14;8.88;;;5.43;;
23712;SDS011;12035;49.978;8.298;2022-12-10T04:37:12;8.55;;;5.85;;
23712;SDS011;12035;49.978;8.298;2022-12-10T04:42:10;7.82;;;4.95;;
23712;SDS011;12035;49.978;8.298;2022-12-10T04:47:09;8.75;;;4.82;;
23712;SDS011;12035;49.978;8.298;2022-12-10T04:52:08;8.75;;;4.85;;
23712;SDS011;12035;49.978;8.298;2022-12-10T04:57:07;7.93;;;5.43;;
23712;SDS011;12035;49.978;8.298;2022-12-10T05:02:07;8.07;;;5.15;;
23712;SDS011;12035;49.978;8.298;2022-12-10T05:07:04;9.48;;;5.57;;
23712;SDS011;12035;49.978;8.298;2022-12-10T05:12:01;8.30;;;5.38;;
23712;SDS011;12035;49.978;8.298;2022-12-10T05:16:58;9.73;;;5.30;;
23712;SDS011;12035;49.978;8.298;2022-12-10T05:21:57;8.10;;;4.63;;
23712;SDS011;12035;49.978;8.298;2022-12-10T05:27:11;8.68;;;4.90;;
23712;SDS011;12035;49.978;8.298;2022-12-10T05:32:08;8.63;;;5.05;;
23712;SDS011;12035;49.978;8.298;2022-12-10T05:37:07;7.90;;;4.95;;
23712;SDS011;12035;49.978;8.298;2022-12-10T05:42:04;8.50;;;5.53;;
23712;SDS011;12035;49.978;8.298;2022-12-10T05:47:01;8.52;;;5.32;;
23712;SDS011;12035;49.978;8.298;2022-12-10T05:51:58;8.88;;;5.70;;
23712;SDS011;12035;49.978;8.298;2022-12-10T05:56:57;8.85;;;5.68;;
23712;SDS011;12035;49.978;8.298;2022-12-10T06:01:54;8.35;;;5.30;;
23712;SDS011;12035;49.978;8.298;2022-12-10T06:06:51;7.47;;;5.15;;
23712;SDS011;12035;49.978;8.298;2022-12-10T06:11:48;7.50;;;4.80;;
23712;SDS011;12035;49.978;8.298;2022-12-10T06:16:47;7.63;;;4.90;;
23712;SDS011;12035;49.978;8.298;2022-12-10T06:21:44;6.85;;;4.53;;
23712;SDS011;12035;49.978;8.298;2022-12-10T06:26:41;9.30;;;4.93;;
23712;SDS011;12035;49.978;8.298;2022-12-10T06:31:38;9.20;;;5.35;;
23712;SDS011;12035;49.978;8.298;2022-12-10T06:36:36;10.10;;;5.18;;
23712;SDS011;12035;49.978;8.298;2022-12-10T06:41:33;8.15;;;4.80;;
23712;SDS011;12035;49.978;8.298;2022-12-10T06:46:31;9.50;;;5.53;;
23712;SDS011;12035;49.978;8.298;2022-12-10T06:51:28;8.75;;;5.15;;
23712;SDS011;12035;49.978;8.298;2022-12-10T06:56:27;9.13;;;5.38;;
23712;SDS011;12035;49.978;8.298;2022-12-10T07:01:24;9.60;;;5.07;;
23712;SDS011;12035;49.978;8.298;2022-12-10T07:06:22;9.60;;;5.78;;
23712;SDS011;12035;49.978;8.298;2022-12-10T07:11:21;11.02;;;5.90;;
23712;SDS011;12035;49.978;8.298;2022-12-10T07:16:21;9.13;;;5.72;;
23712;SDS011;12035;49.978;8.298;2022-12-10T07:21:20;9.75;;;6.10;;
23712;SDS011;12035;49.978;8.298;2022-12-10T07:26:20;9.65;;;6.07;;
23712;SDS011;12035;49.978;8.298;2022-12-10T07:31:19;8.63;;;5.68;;
23712;SDS011;12035;49.978;8.298;2022-12-10T07:36:20;9.63;;;5.50;;
23712;SDS011;12035;49.978;8.298;2022-12-10T07:41:21;8.48;;;5.60;;
23712;SDS011;12035;49.978;8.298;2022-12-10T07:46:21;8.50;;;5.35;;
23712;SDS011;12035;49.978;8.298;2022-12-10T07:51:20;10.15;;;5.63;;
23712;SDS011;12035;49.978;8.298;2022-12-10T07:56:19;10.35;;;5.63;;
23712;SDS011;12035;49.978;8.298;2022-12-10T08:01:19;9.65;;;5.57;;
23712;SDS011;12035;49.978;8.298;2022-12-10T08:06:20;12.82;;;5.70;;
23712;SDS011;12035;49.978;8.298;2022-12-10T08:11:19;9.07;;;5.53;;
23712;SDS011;12035;49.978;8.298;2022-12-10T08:16:19;9.00;;;5.13;;
23712;SDS011;12035;49.978;8.298;2022-12-10T08:21:23;9.57;;;5.75;;
23712;SDS011;12035;49.978;8.298;2022-12-10T08:26:23;7.72;;;4.75;;
23712;SDS011;12035;49.978;8.298;2022-12-10T08:31:24;8.43;;;5.30;;
23712;SDS011;12035;49.978;8.298;2022-12-10T08:36:22;8.63;;;5.15;;
23712;SDS011;12035;49.978;8.298;2022-12-10T08:41:20;9.60;;;5.35;;
23712;SDS011;12035;49.978;8.298;2022-12-10T08:46:18;8.60;;;5.25;;
23712;SDS011;12035;49.978;8.298;2022-12-10T08:51:17;9.88;;;5.57;;
23712;SDS011;12035;49.978;8.298;2022-12-10T08:56:15;10.30;;;6.60;;
23712;SDS011;12035;49.978;8.298;2022-12-10T09:01:14;10.88;;;6.55;;
23712;SDS011;12035;49.978;8.298;2022-12-10T09:06:14;9.75;;;5.45;;
23712;SDS011;12035;49.978;8.298;2022-12-10T09:11:15;9.32;;;6.18;;
23712;SDS011;12035;49.978;8.298;2022-12-10T09:16:15;9.43;;;6.18;;
23712;SDS011;12035;49.978;8.298;2022-12-10T09:21:14;8.55;;;5.15;;
23712;SDS011;12035;49.978;8.298;2022-12-10T09:26:14;9.82;;;5.75;;
23712;SDS011;12035;49.978;8.298;2022-12-10T09:31:12;10.30;;;5.72;;
23712;SDS011;12035;49.978;8.298;2022-12-10T09:36:11;9.88;;;5.80;;
23712;SDS011;12035;49.978;8.298;2022-12-10T09:41:16;8.77;;;5.47;;
23712;SDS011;12035;49.978;8.298;2022-12-10T09:46:39;12.55;;;7.50;;
23712;SDS011;12035;49.978;8.298;2022-12-10T09:51:45;9.73;;;6.60;;
23712;SDS011;12035;49.978;8.298;2022-12-10T09:56:43;10.57;;;6.32;;
23712;SDS011;12035;49.978;8.298;2022-12-10T10:01:41;10.68;;;7.28;;
23712;SDS011;12035;49.978;8.298;2022-12-10T10:06:39;10.98;;;6.28;;
23712;SDS011;12035;49.978;8.298;2022-12-10T10:11:37;9.23;;;6.32;;
23712;SDS011;12035;49.978;8.298;2022-12-10T10:16:37;9.50;;;5.85;;
23712;SDS011;12035;49.978;8.298;2022-12-10T10:21:42;9.95;;;6.13;;
23712;SDS011;12035;49.978;8.298;2022-12-10T10:26:41;8.80;;;4.85;;
23712;SDS011;12035;49.978;8.298;2022-12-10T10:31:42;8.20;;;4.90;;
23712;SDS011;12035;49.978;8.298;2022-12-10T10:36:39;8.55;;;5.32;;
23712;SDS011;12035;49.978;8.298;2022-12-10T10:41:38;8.55;;;5.05;;
23712;SDS011;12035;49.978;8.298;2022-12-10T10:46:35;8.85;;;5.35;;
23712;SDS011;12035;49.978;8.298;2022-12-10T10:51:41;8.88;;;6.43;;
23712;SDS011;12035;49.978;8.298;2022-12-10T10:56:40;9.55;;;5.63;;
23712;SDS011;12035;49.978;8.298;2022-12-10T11:01:45;9.68;;;5.30;;
23712;SDS011;12035;49.978;8.298;2022-12-10T11:06:45;9.30;;;5.28;;
23712;SDS011;12035;49.978;8.298;2022-12-10T11:11:42;7.85;;;5.35;;
23712;SDS011;12035;49.978;8.298;2022-12-10T11:16:48;7.43;;;4.80;;
23712;SDS011;12035;49.978;8.298;2022-12-10T11:21:45;6.47;;;3.88;;
23712;SDS011;12035;49.978;8.298;2022-12-10T11:32:06;6.25;;;3.97;;
23712;SDS011;12035;49.978;8.298;2022-12-10T11:37:21;6.25;;;3.97;;
23712;SDS011;12035;49.978;8.298;2022-12-10T11:42:29;5.20;;;3.30;;
23712;SDS011;12035;49.978;8.298;2022-12-10T11:47:41;6.20;;;3.75;;
23712;SDS011;12035;49.978;8.298;2022-12-10T11:58:37;4.85;;;3.03;;
23712;SDS011;12035;49.978;8.298;2022-12-10T12:03:55;6.05;;;3.90;;
23712;SDS011;12035;49.978;8.298;2022-12-10T12:09:04;5.15;;;3.33;;
23712;SDS011;12035;49.978;8.298;2022-12-10T12:14:12;6.57;;;3.22;;
23712;SDS011;12035;49.978;8.298;2022-12-10T12:19:19;5.85;;;3.65;;
23712;SDS011;12035;49.978;8.298;2022-12-10T12:24:28;5.40;;;3.78;;
23712;SDS011;12035;49.978;8.298;2022-12-10T12:29:32;7.07;;;4.35;;
23712;SDS011;12035;49.978;8.298;2022-12-10T12:34:37;5.32;;;3.80;;
23712;SDS011;12035;49.978;8.298;2022-12-10T12:39:46;5.45;;;3.72;;
23712;SDS011;12035;49.978;8.298;2022-12-10T12:44:55;5.50;;;3.60;;
23712;SDS011;12035;49.978;8.298;2022-12-10T12:50:01;4.55;;;3.08;;
23712;SDS011;12035;49.978;8.298;2022-12-10T12:55:09;5.50;;;3.85;;
23712;SDS011;12035;49.978;8.298;2022-12-10T13:00:14;5.85;;;3.65;;
23712;SDS011;12035;49.978;8.298;2022-12-10T13:05:20;8.52;;;5.10;;
23712;SDS011;12035;49.978;8.298;2022-12-10T13:10:26;8.45;;;5.13;;
23712;SDS011;12035;49.978;8.298;2022-12-10T13:15:32;7.68;;;5.38;;
23712;SDS011;12035;49.978;8.298;2022-12-10T13:20:34;7.85;;;5.38;;
23712;SDS011;12035;49.978;8.298;2022-12-10T13:25:40;9.15;;;5.53;;
23712;SDS011;12035;49.978;8.298;2022-12-10T13:31:08;9.88;;;6.13;;
23712;SDS011;12035;49.978;8.298;2022-12-10T13:47:50;8.15;;;4.97;;
23712;SDS011;12035;49.978;8.298;2022-12-10T13:52:53;6.75;;;4.78;;
23712;SDS011;12035;49.978;8.298;2022-12-10T13:58:15;7.25;;;4.72;;
23712;SDS011;12035;49.978;8.298;2022-12-10T14:03:42;6.13;;;3.83;;
23712;SDS011;12035;49.978;8.298;2022-12-10T14:09:11;7.63;;;4.65;;
23712;SDS011;12035;49.978;8.298;2022-12-10T14:14:15;6.82;;;4.18;;
23712;SDS011;12035;49.978;8.298;2022-12-10T14:19:20;5.88;;;3.75;;
23712;SDS011;12035;49.978;8.298;2022-12-10T14:24:31;6.32;;;3.92;;
23712;SDS011;12035;49.978;8.298;2022-12-10T14:29:31;7.13;;;4.45;;
23712;SDS011;12035;49.978;8.298;2022-12-10T14:34:28;8.05;;;4.22;;
23712;SDS011;12035;49.978;8.298;2022-12-10T14:39:26;6.40;;;4.32;;
23712;SDS011;12035;49.978;8.298;2022-12-10T14:44:28;6.63;;;4.20;;
23712;SDS011;12035;49.978;8.298;2022-12-10T14:49:26;7.57;;;4.72;;
23712;SDS011;12035;49.978;8.298;2022-12-10T14:54:25;7.00;;;4.72;;
23712;SDS011;12035;49.978;8.298;2022-12-10T14:59:28;10.15;;;4.68;;
23712;SDS011;12035;49.978;8.298;2022-12-10T15:04:31;7.38;;;4.57;;
23712;SDS011;12035;49.978;8.298;2022-12-10T15:09:38;7.93;;;4.75;;
23712;SDS011;12035;49.978;8.298;2022-12-10T15:14:37;7.15;;;4.43;;
23712;SDS011;12035;49.978;8.298;2022-12-10T15:19:38;9.10;;;5.10;;
23712;SDS011;12035;49.978;8.298;2022-12-10T15:24:37;8.90;;;5.03;;
23712;SDS011;12035;49.978;8.298;2022-12-10T15:29:39;8.70;;;5.10;;
23712;SDS011;12035;49.978;8.298;2022-12-10T15:34:38;8.93;;;5.60;;
23712;SDS011;12035;49.978;8.298;2022-12-10T15:39:43;9.25;;;5.15;;
23712;SDS011;12035;49.978;8.298;2022-12-10T15:44:45;9.80;;;5.47;;
23712;SDS011;12035;49.978;8.298;2022-12-10T15:49:43;9.77;;;6.15;;
23712;SDS011;12035;49.978;8.298;2022-12-10T15:54:41;10.50;;;5.82;;
23712;SDS011;12035;49.978;8.298;2022-12-10T15:59:41;11.70;;;6.47;;
23712;SDS011;12035;49.978;8.298;2022-12-10T16:04:40;11.77;;;6.82;;
23712;SDS011;12035;49.978;8.298;2022-12-10T16:09:38;10.15;;;6.28;;
23712;SDS011;12035;49.978;8.298;2022-12-10T16:14:35;9.68;;;5.82;;
23712;SDS011;12035;49.978;8.298;2022-12-10T16:19:32;9.32;;;5.60;;
23712;SDS011;12035;49.978;8.298;2022-12-10T16:24:33;9.45;;;5.35;;
23712;SDS011;12035;49.978;8.298;2022-12-10T16:29:31;10.02;;;5.60;;
23712;SDS011;12035;49.978;8.298;2022-12-10T16:34:28;8.95;;;6.20;;
23712;SDS011;12035;49.978;8.298;2022-12-10T16:39:25;10.65;;;6.82;;
23712;SDS011;12035;49.978;8.298;2022-12-10T16:44:25;11.43;;;6.28;;
23712;SDS011;12035;49.978;8.298;2022-12-10T16:49:22;11.60;;;6.80;;
23712;SDS011;12035;49.978;8.298;2022-12-10T16:54:19;12.55;;;7.38;;
23712;SDS011;12035;49.978;8.298;2022-12-10T16:59:17;11.15;;;6.93;;
23712;SDS011;12035;49.978;8.298;2022-12-10T17:04:16;11.85;;;7.20;;
23712;SDS011;12035;49.978;8.298;2022-12-10T17:09:13;12.18;;;7.32;;
23712;SDS011;12035;49.978;8.298;2022-12-10T17:14:13;12.43;;;6.88;;
23712;SDS011;12035;49.978;8.298;2022-12-10T17:19:22;11.57;;;6.75;;
23712;SDS011;12035;49.978;8.298;2022-12-10T17:24:20;11.98;;;7.10;;
23712;SDS011;12035;49.978;8.298;2022-12-10T17:29:20;14.30;;;8.05;;
23712;SDS011;12035;49.978;8.298;2022-12-10T17:34:23;21.63;;;12.73;;
23712;SDS011;12035;49.978;8.298;2022-12-10T17:39:21;16.02;;;9.57;;
23712;SDS011;12035;49.978;8.298;2022-12-10T17:44:19;18.88;;;11.50;;
23712;SDS011;12035;49.978;8.298;2022-12-10T17:49:17;14.55;;;9.07;;
23712;SDS011;12035;49.978;8.298;2022-12-10T17:54:15;17.52;;;10.40;;
23712;SDS011;12035;49.978;8.298;2022-12-10T17:59:13;17.95;;;10.32;;
23712;SDS011;12035;49.978;8.298;2022-12-10T18:04:10;16.60;;;9.50;;
23712;SDS011;12035;49.978;8.298;2022-12-10T18:09:08;12.32;;;7.93;;
23712;SDS011;12035;49.978;8.298;2022-12-10T18:14:09;16.70;;;9.40;;
23712;SDS011;12035;49.978;8.298;2022-12-10T18:19:10;14.65;;;9.18;;
23712;SDS011;12035;49.978;8.298;2022-12-10T18:24:10;16.48;;;10.23;;
23712;SDS011;12035;49.978;8.298;2022-12-10T18:29:11;17.20;;;10.23;;
23712;SDS011;12035;49.978;8.298;2022-12-10T18:34:10;16.55;;;8.10;;
23712;SDS011;12035;49.978;8.298;2022-12-10T18:39:13;14.68;;;8.70;;
23712;SDS011;12035;49.978;8.298;2022-12-10T18:44:16;14.60;;;7.80;;
23712;SDS011;12035;49.978;8.298;2022-12-10T18:49:19;14.75;;;8.60;;
23712;SDS011;12035;49.978;8.298;2022-12-10T18:54:21;22.45;;;10.40;;
23712;SDS011;12035;49.978;8.298;2022-12-10T18:59:23;19.48;;;9.20;;
23712;SDS011;12035;49.978;8.298;2022-12-10T19:04:20;17.42;;;9.68;;
23712;SDS011;12035;49.978;8.298;2022-12-10T19:09:17;15.70;;;8.40;;
23712;SDS011;12035;49.978;8.298;2022-12-10T19:14:20;18.00;;;10.55;;
23712;SDS011;12035;49.978;8.298;2022-12-10T19:19:19;21.25;;;10.80;;
23712;SDS011;12035;49.978;8.298;2022-12-10T19:24:16;20.30;;;11.32;;
23712;SDS011;12035;49.978;8.298;2022-12-10T19:29:14;18.80;;;10.98;;
23712;SDS011;12035;49.978;8.298;2022-12-10T19:34:21;19.08;;;10.63;;
23712;SDS011;12035;49.978;8.298;2022-12-10T19:39:23;17.88;;;10.32;;
23712;SDS011;12035;49.978;8.298;2022-12-10T19:44:22;18.15;;;10.70;;
23712;SDS011;12035;49.978;8.298;2022-12-10T19:49:21;16.90;;;10.05;;
23712;SDS011;12035;49.978;8.298;2022-12-10T19:54:24;18.38;;;9.48;;
23712;SDS011;12035;49.978;8.298;2022-12-10T19:59:21;17.38;;;9.48;;
23712;SDS011;12035;49.978;8.298;2022-12-10T20:04:18;19.33;;;10.85;;
23712;SDS011;12035;49.978;8.298;2022-12-10T20:09:17;23.02;;;12.73;;
23712;SDS011;12035;49.978;8.298;2022-12-10T20:14:18;20.15;;;11.63;;
23712;SDS011;12035;49.978;8.298;2022-12-10T20:19:16;17.50;;;10.35;;
23712;SDS011;12035;49.978;8.298;2022-12-10T20:24:18;18.30;;;10.10;;
23712;SDS011;12035;49.978;8.298;2022-12-10T20:29:16;18.38;;;11.25;;
23712;SDS011;12035;49.978;8.298;2022-12-10T20:34:16;19.17;;;11.20;;
23712;SDS011;12035;49.978;8.298;2022-12-10T20:39:16;16.90;;;9.82;;
23712;SDS011;12035;49.978;8.298;2022-12-10T20:44:16;20.95;;;10.95;;
23712;SDS011;12035;49.978;8.298;2022-12-10T20:49:15;21.58;;;11.95;;
23712;SDS011;12035;49.978;8.298;2022-12-10T20:54:14;20.73;;;11.38;;
23712;SDS011;12035;49.978;8.298;2022-12-10T20:59:13;20.42;;;11.40;;
23712;SDS011;12035;49.978;8.298;2022-12-10T21:04:12;23.23;;;11.88;;
23712;SDS011;12035;49.978;8.298;2022-12-10T21:09:12;18.90;;;10.70;;
23712;SDS011;12035;49.978;8.298;2022-12-10T21:14:09;22.75;;;11.98;;
23712;SDS011;12035;49.978;8.298;2022-12-10T21:19:08;20.10;;;11.05;;
23712;SDS011;12035;49.978;8.298;2022-12-10T21:24:08;16.17;;;9.48;;
23712;SDS011;12035;49.978;8.298;2022-12-10T21:29:05;21.00;;;11.32;;
23712;SDS011;12035;49.978;8.298;2022-12-10T21:34:06;21.30;;;12.02;;
23712;SDS011;12035;49.978;8.298;2022-12-10T21:39:05;20.40;;;10.80;;
23712;SDS011;12035;49.978;8.298;2022-12-10T21:44:02;18.25;;;10.40;;
23712;SDS011;12035;49.978;8.298;2022-12-10T21:49:02;21.05;;;11.25;;
23712;SDS011;12035;49.978;8.298;2022-12-10T21:54:01;18.63;;;10.30;;
23712;SDS011;12035;49.978;8.298;2022-12-10T21:59:00;17.75;;;9.77;;
23712;SDS011;12035;49.978;8.298;2022-12-10T22:03:58;19.77;;;10.65;;
23712;SDS011;12035;49.978;8.298;2022-12-10T22:08:55;19.25;;;10.82;;
23712;SDS011;12035;49.978;8.298;2022-12-10T22:13:54;20.27;;;11.43;;
23712;SDS011;12035;49.978;8.298;2022-12-10T22:18:53;20.40;;;11.77;;
23712;SDS011;12035;49.978;8.298;2022-12-10T22:23:50;20.52;;;11.60;;
23712;SDS011;12035;49.978;8.298;2022-12-10T22:28:48;21.08;;;11.35;;
23712;SDS011;12035;49.978;8.298;2022-12-10T22:33:47;18.40;;;10.00;;
23712;SDS011;12035;49.978;8.298;2022-12-10T22:38:44;18.63;;;10.10;;
23712;SDS011;12035;49.978;8.298;2022-12-10T22:43:41;18.88;;;10.65;;
23712;SDS011;12035;49.978;8.298;2022-12-10T22:48:38;19.90;;;11.40;;
23712;SDS011;12035;49.978;8.298;2022-12-10T22:53:37;17.50;;;10.25;;
23712;SDS011;12035;49.978;8.298;2022-12-10T22:58:35;19.17;;;10.38;;
23712;SDS011;12035;49.978;8.298;2022-12-10T23:03:32;20.10;;;11.35;;
23712;SDS011;12035;49.978;8.298;2022-12-10T23:08:29;20.50;;;11.95;;
23712;SDS011;12035;49.978;8.298;2022-12-10T23:13:27;22.90;;;12.73;;
23712;SDS011;12035;49.978;8.298;2022-12-10T23:18:24;20.98;;;11.02;;
23712;SDS011;12035;49.978;8.298;2022-12-10T23:23:21;19.83;;;10.98;;
23712;SDS011;12035;49.978;8.298;2022-12-10T23:28:19;18.75;;;10.95;;
23712;SDS011;12035;49.978;8.298;2022-12-10T23:33:18;19.65;;;11.50;;
23712;SDS011;12035;49.978;8.298;2022-12-10T23:38:15;17.63;;;10.05;;
23712;SDS011;12035;49.978;8.298;2022-12-10T23:43:12;19.98;;;11.70;;
23712;SDS011;12035;49.978;8.298;2022-12-10T23:48:10;22.23;;;11.32;;
23712;SDS011;12035;49.978;8.298;2022-12-10T23:53:08;23.67;;;13.10;;
23712;SDS011;12035;49.978;8.298;2022-12-10T23:58:06;21.35;;;11.52;;
